Terminal Aerodrome Forecast
Issued by NWS

Home | Current Version | Previous Version | Text Only | Print | Product List | Glossary On
Versions: 1 2 3 4 5 6 7 8 9 10 11 12 13 14 15 16
756
FTUS41 KCAR 260522 AAB
TAFPQI
TAF AMD
KPQI 260522Z 2605/2706 33012KT P6SM OVC013
     FM261200 34012KT P6SM SCT025
     FM270400 11006KT P6SM BKN015
     FM270500 12006KT P6SM BKN008=

USA.gov is the U.S. government's official web portal to all federal, state and local government web resources and services.